sensor_id;sensor_type;location;lat;lon;timestamp;P1;durP1;ratioP1;P2;durP2;ratioP2
22026;SDS011;11177;50.966;10.070;2023-05-23T00:00:48;11.45;;;9.52;;
22026;SDS011;11177;50.966;10.070;2023-05-23T00:03:17;11.43;;;9.35;;
22026;SDS011;11177;50.966;10.070;2023-05-23T00:05:48;12.80;;;9.52;;
22026;SDS011;11177;50.966;10.070;2023-05-23T00:08:15;10.82;;;9.40;;
22026;SDS011;11177;50.966;10.070;2023-05-23T00:10:43;13.18;;;10.10;;
22026;SDS011;11177;50.966;10.070;2023-05-23T00:13:10;10.73;;;9.43;;
22026;SDS011;11177;50.966;10.070;2023-05-23T00:15:38;11.95;;;9.57;;
22026;SDS011;11177;50.966;10.070;2023-05-23T00:18:07;12.23;;;10.30;;
22026;SDS011;11177;50.966;10.070;2023-05-23T00:20:41;13.27;;;10.77;;
22026;SDS011;11177;50.966;10.070;2023-05-23T00:23:09;11.48;;;10.27;;
22026;SDS011;11177;50.966;10.070;2023-05-23T00:25:36;11.75;;;10.38;;
22026;SDS011;11177;50.966;10.070;2023-05-23T00:28:03;11.77;;;10.18;;
22026;SDS011;11177;50.966;10.070;2023-05-23T00:30:31;11.15;;;9.93;;
22026;SDS011;11177;50.966;10.070;2023-05-23T00:32:59;12.43;;;10.15;;
22026;SDS011;11177;50.966;10.070;2023-05-23T00:35:27;12.30;;;9.48;;
22026;SDS011;11177;50.966;10.070;2023-05-23T00:37:54;12.20;;;9.98;;
22026;SDS011;11177;50.966;10.070;2023-05-23T00:40:21;10.73;;;9.60;;
22026;SDS011;11177;50.966;10.070;2023-05-23T00:42:48;13.70;;;9.85;;
22026;SDS011;11177;50.966;10.070;2023-05-23T00:45:15;11.75;;;9.70;;
22026;SDS011;11177;50.966;10.070;2023-05-23T00:47:42;11.82;;;10.02;;
22026;SDS011;11177;50.966;10.070;2023-05-23T00:50:11;12.38;;;10.13;;
22026;SDS011;11177;50.966;10.070;2023-05-23T00:52:40;17.40;;;10.38;;
22026;SDS011;11177;50.966;10.070;2023-05-23T00:55:11;14.15;;;10.27;;
22026;SDS011;11177;50.966;10.070;2023-05-23T00:57:38;16.27;;;10.38;;
22026;SDS011;11177;50.966;10.070;2023-05-23T01:00:07;14.02;;;10.38;;
22026;SDS011;11177;50.966;10.070;2023-05-23T01:02:45;14.20;;;10.93;;
22026;SDS011;11177;50.966;10.070;2023-05-23T01:05:14;11.52;;;10.30;;
22026;SDS011;11177;50.966;10.070;2023-05-23T01:07:43;13.00;;;10.15;;
22026;SDS011;11177;50.966;10.070;2023-05-23T01:10:10;13.57;;;10.60;;
22026;SDS011;11177;50.966;10.070;2023-05-23T01:12:41;13.38;;;11.13;;
22026;SDS011;11177;50.966;10.070;2023-05-23T01:15:17;21.17;;;11.18;;
22026;SDS011;11177;50.966;10.070;2023-05-23T01:18:01;13.85;;;11.05;;
22026;SDS011;11177;50.966;10.070;2023-05-23T01:20:35;12.45;;;10.38;;
22026;SDS011;11177;50.966;10.070;2023-05-23T01:23:19;13.38;;;10.18;;
22026;SDS011;11177;50.966;10.070;2023-05-23T01:26:12;14.35;;;10.63;;
22026;SDS011;11177;50.966;10.070;2023-05-23T01:28:46;13.40;;;10.23;;
22026;SDS011;11177;50.966;10.070;2023-05-23T01:31:14;13.73;;;10.82;;
22026;SDS011;11177;50.966;10.070;2023-05-23T01:33:42;15.65;;;10.98;;
22026;SDS011;11177;50.966;10.070;2023-05-23T01:36:09;14.23;;;11.10;;
22026;SDS011;11177;50.966;10.070;2023-05-23T01:38:38;13.07;;;10.93;;
22026;SDS011;11177;50.966;10.070;2023-05-23T01:41:05;15.75;;;10.85;;
22026;SDS011;11177;50.966;10.070;2023-05-23T01:43:32;13.77;;;11.00;;
22026;SDS011;11177;50.966;10.070;2023-05-23T01:45:59;17.00;;;11.40;;
22026;SDS011;11177;50.966;10.070;2023-05-23T01:48:26;15.93;;;10.73;;
22026;SDS011;11177;50.966;10.070;2023-05-23T01:50:53;13.40;;;10.70;;
22026;SDS011;11177;50.966;10.070;2023-05-23T01:53:22;14.55;;;10.52;;
22026;SDS011;11177;50.966;10.070;2023-05-23T01:55:50;13.73;;;10.38;;
22026;SDS011;11177;50.966;10.070;2023-05-23T01:58:17;16.50;;;11.68;;
22026;SDS011;11177;50.966;10.070;2023-05-23T02:00:45;18.20;;;11.43;;
22026;SDS011;11177;50.966;10.070;2023-05-23T02:03:11;14.93;;;10.93;;
22026;SDS011;11177;50.966;10.070;2023-05-23T02:05:39;14.45;;;11.10;;
22026;SDS011;11177;50.966;10.070;2023-05-23T02:08:06;16.75;;;11.45;;
22026;SDS011;11177;50.966;10.070;2023-05-23T02:10:33;14.77;;;11.32;;
22026;SDS011;11177;50.966;10.070;2023-05-23T02:12:59;15.07;;;11.98;;
22026;SDS011;11177;50.966;10.070;2023-05-23T02:15:26;16.17;;;12.35;;
22026;SDS011;11177;50.966;10.070;2023-05-23T02:17:53;18.48;;;12.32;;
22026;SDS011;11177;50.966;10.070;2023-05-23T02:20:20;15.13;;;12.27;;
22026;SDS011;11177;50.966;10.070;2023-05-23T02:22:47;16.00;;;12.77;;
22026;SDS011;11177;50.966;10.070;2023-05-23T02:25:13;17.63;;;12.65;;
22026;SDS011;11177;50.966;10.070;2023-05-23T02:27:41;17.17;;;12.65;;
22026;SDS011;11177;50.966;10.070;2023-05-23T02:30:08;16.70;;;12.50;;
22026;SDS011;11177;50.966;10.070;2023-05-23T02:32:35;19.40;;;13.10;;
22026;SDS011;11177;50.966;10.070;2023-05-23T02:35:03;18.45;;;12.48;;
22026;SDS011;11177;50.966;10.070;2023-05-23T02:37:31;17.02;;;12.52;;
22026;SDS011;11177;50.966;10.070;2023-05-23T02:39:57;17.20;;;12.38;;
22026;SDS011;11177;50.966;10.070;2023-05-23T02:42:24;16.02;;;12.88;;
22026;SDS011;11177;50.966;10.070;2023-05-23T02:44:51;17.58;;;13.52;;
22026;SDS011;11177;50.966;10.070;2023-05-23T02:47:18;17.30;;;13.23;;
22026;SDS011;11177;50.966;10.070;2023-05-23T02:49:45;15.68;;;12.50;;
22026;SDS011;11177;50.966;10.070;2023-05-23T02:52:12;15.38;;;12.23;;
22026;SDS011;11177;50.966;10.070;2023-05-23T02:54:39;19.52;;;12.77;;
22026;SDS011;11177;50.966;10.070;2023-05-23T02:57:06;17.38;;;13.57;;
22026;SDS011;11177;50.966;10.070;2023-05-23T02:59:33;18.05;;;13.80;;
22026;SDS011;11177;50.966;10.070;2023-05-23T03:02:00;17.27;;;13.63;;
22026;SDS011;11177;50.966;10.070;2023-05-23T03:04:27;16.80;;;13.25;;
22026;SDS011;11177;50.966;10.070;2023-05-23T03:06:55;17.27;;;13.23;;
22026;SDS011;11177;50.966;10.070;2023-05-23T03:09:22;19.50;;;14.23;;
22026;SDS011;11177;50.966;10.070;2023-05-23T03:11:49;19.80;;;14.30;;
22026;SDS011;11177;50.966;10.070;2023-05-23T03:14:16;18.25;;;13.65;;
22026;SDS011;11177;50.966;10.070;2023-05-23T03:16:43;22.33;;;15.13;;
22026;SDS011;11177;50.966;10.070;2023-05-23T03:19:11;18.20;;;14.13;;
22026;SDS011;11177;50.966;10.070;2023-05-23T03:21:38;20.67;;;14.60;;
22026;SDS011;11177;50.966;10.070;2023-05-23T03:24:05;20.33;;;14.88;;
22026;SDS011;11177;50.966;10.070;2023-05-23T03:26:32;19.95;;;14.57;;
22026;SDS011;11177;50.966;10.070;2023-05-23T03:28:59;18.90;;;14.05;;
22026;SDS011;11177;50.966;10.070;2023-05-23T03:31:26;19.50;;;15.05;;
22026;SDS011;11177;50.966;10.070;2023-05-23T03:33:53;24.25;;;17.65;;
22026;SDS011;11177;50.966;10.070;2023-05-23T03:36:19;27.55;;;17.55;;
22026;SDS011;11177;50.966;10.070;2023-05-23T03:38:47;26.08;;;17.88;;
22026;SDS011;11177;50.966;10.070;2023-05-23T03:41:14;21.90;;;17.10;;
22026;SDS011;11177;50.966;10.070;2023-05-23T03:43:41;23.42;;;18.23;;
22026;SDS011;11177;50.966;10.070;2023-05-23T03:46:08;24.83;;;18.20;;
22026;SDS011;11177;50.966;10.070;2023-05-23T03:48:35;23.75;;;18.13;;
22026;SDS011;11177;50.966;10.070;2023-05-23T03:51:02;25.10;;;17.92;;
22026;SDS011;11177;50.966;10.070;2023-05-23T03:53:29;25.33;;;18.05;;
22026;SDS011;11177;50.966;10.070;2023-05-23T03:55:56;25.85;;;18.45;;
22026;SDS011;11177;50.966;10.070;2023-05-23T03:58:23;21.73;;;16.27;;
22026;SDS011;11177;50.966;10.070;2023-05-23T04:00:50;23.30;;;15.18;;
22026;SDS011;11177;50.966;10.070;2023-05-23T04:03:18;21.20;;;15.13;;
22026;SDS011;11177;50.966;10.070;2023-05-23T04:05:46;20.58;;;14.50;;
22026;SDS011;11177;50.966;10.070;2023-05-23T04:08:13;17.70;;;14.10;;
22026;SDS011;11177;50.966;10.070;2023-05-23T04:10:40;17.70;;;13.57;;
22026;SDS011;11177;50.966;10.070;2023-05-23T04:13:06;17.52;;;13.48;;
22026;SDS011;11177;50.966;10.070;2023-05-23T04:15:35;19.85;;;13.48;;
22026;SDS011;11177;50.966;10.070;2023-05-23T04:18:01;22.80;;;12.55;;
22026;SDS011;11177;50.966;10.070;2023-05-23T04:20:29;16.88;;;12.65;;
22026;SDS011;11177;50.966;10.070;2023-05-23T04:22:56;14.40;;;12.02;;
22026;SDS011;11177;50.966;10.070;2023-05-23T04:25:22;16.63;;;11.45;;
22026;SDS011;11177;50.966;10.070;2023-05-23T04:27:49;15.50;;;11.00;;
22026;SDS011;11177;50.966;10.070;2023-05-23T04:30:16;15.43;;;11.27;;
22026;SDS011;11177;50.966;10.070;2023-05-23T04:32:44;14.10;;;10.77;;
22026;SDS011;11177;50.966;10.070;2023-05-23T04:35:11;14.98;;;11.55;;
22026;SDS011;11177;50.966;10.070;2023-05-23T04:37:39;13.05;;;10.18;;
22026;SDS011;11177;50.966;10.070;2023-05-23T04:40:07;14.82;;;10.82;;
22026;SDS011;11177;50.966;10.070;2023-05-23T04:42:34;14.15;;;10.52;;
22026;SDS011;11177;50.966;10.070;2023-05-23T04:45:01;11.98;;;10.43;;
22026;SDS011;11177;50.966;10.070;2023-05-23T04:47:29;16.42;;;10.57;;
22026;SDS011;11177;50.966;10.070;2023-05-23T04:50:02;14.45;;;11.38;;
22026;SDS011;11177;50.966;10.070;2023-05-23T04:52:29;13.32;;;10.63;;
22026;SDS011;11177;50.966;10.070;2023-05-23T04:54:59;16.48;;;10.77;;
22026;SDS011;11177;50.966;10.070;2023-05-23T04:57:26;15.00;;;11.00;;
22026;SDS011;11177;50.966;10.070;2023-05-23T04:59:54;15.10;;;10.40;;
22026;SDS011;11177;50.966;10.070;2023-05-23T05:02:22;12.45;;;10.50;;
22026;SDS011;11177;50.966;10.070;2023-05-23T05:04:49;12.80;;;10.35;;
22026;SDS011;11177;50.966;10.070;2023-05-23T05:07:16;12.77;;;10.40;;
22026;SDS011;11177;50.966;10.070;2023-05-23T05:09:43;15.52;;;11.10;;
22026;SDS011;11177;50.966;10.070;2023-05-23T05:12:10;12.30;;;8.82;;
22026;SDS011;11177;50.966;10.070;2023-05-23T05:14:37;9.70;;;7.93;;
22026;SDS011;11177;50.966;10.070;2023-05-23T05:17:03;9.45;;;8.05;;
22026;SDS011;11177;50.966;10.070;2023-05-23T05:19:30;12.13;;;7.43;;
22026;SDS011;11177;50.966;10.070;2023-05-23T05:21:57;9.88;;;7.25;;
22026;SDS011;11177;50.966;10.070;2023-05-23T05:24:25;8.68;;;6.65;;
22026;SDS011;11177;50.966;10.070;2023-05-23T05:26:53;9.60;;;6.88;;
22026;SDS011;11177;50.966;10.070;2023-05-23T05:29:20;8.02;;;6.53;;
22026;SDS011;11177;50.966;10.070;2023-05-23T05:31:47;7.20;;;6.13;;
22026;SDS011;11177;50.966;10.070;2023-05-23T05:34:14;8.98;;;5.78;;
22026;SDS011;11177;50.966;10.070;2023-05-23T05:36:41;8.52;;;6.03;;
22026;SDS011;11177;50.966;10.070;2023-05-23T05:39:15;7.57;;;6.15;;
22026;SDS011;11177;50.966;10.070;2023-05-23T05:41:42;6.35;;;5.53;;
22026;SDS011;11177;50.966;10.070;2023-05-23T05:44:09;6.97;;;5.80;;
22026;SDS011;11177;50.966;10.070;2023-05-23T05:46:36;11.23;;;6.38;;
22026;SDS011;11177;50.966;10.070;2023-05-23T05:49:03;8.15;;;6.30;;
22026;SDS011;11177;50.966;10.070;2023-05-23T05:51:30;9.85;;;5.47;;
22026;SDS011;11177;50.966;10.070;2023-05-23T05:53:57;6.47;;;5.13;;
22026;SDS011;11177;50.966;10.070;2023-05-23T05:56:24;6.55;;;5.03;;
22026;SDS011;11177;50.966;10.070;2023-05-23T05:58:51;5.65;;;4.65;;
22026;SDS011;11177;50.966;10.070;2023-05-23T06:01:18;4.78;;;4.20;;
22026;SDS011;11177;50.966;10.070;2023-05-23T06:03:45;5.00;;;4.50;;
22026;SDS011;11177;50.966;10.070;2023-05-23T06:06:12;6.47;;;4.45;;
22026;SDS011;11177;50.966;10.070;2023-05-23T06:08:40;4.75;;;4.05;;
22026;SDS011;11177;50.966;10.070;2023-05-23T06:11:08;5.15;;;3.97;;
22026;SDS011;11177;50.966;10.070;2023-05-23T06:13:34;4.18;;;3.75;;
22026;SDS011;11177;50.966;10.070;2023-05-23T06:16:01;5.28;;;4.10;;
22026;SDS011;11177;50.966;10.070;2023-05-23T06:18:28;4.40;;;3.85;;
22026;SDS011;11177;50.966;10.070;2023-05-23T06:20:55;6.25;;;3.50;;
22026;SDS011;11177;50.966;10.070;2023-05-23T06:23:22;4.18;;;3.53;;
22026;SDS011;11177;50.966;10.070;2023-05-23T06:25:49;5.72;;;3.90;;
22026;SDS011;11177;50.966;10.070;2023-05-23T06:28:16;5.05;;;3.42;;
22026;SDS011;11177;50.966;10.070;2023-05-23T06:30:43;3.70;;;3.30;;
22026;SDS011;11177;50.966;10.070;2023-05-23T06:33:10;3.33;;;3.03;;
22026;SDS011;11177;50.966;10.070;2023-05-23T06:35:37;3.25;;;2.95;;
22026;SDS011;11177;50.966;10.070;2023-05-23T06:38:04;6.47;;;2.85;;
22026;SDS011;11177;50.966;10.070;2023-05-23T06:40:32;2.97;;;2.67;;
22026;SDS011;11177;50.966;10.070;2023-05-23T06:42:58;3.53;;;2.53;;
22026;SDS011;11177;50.966;10.070;2023-05-23T06:45:25;3.25;;;2.75;;
22026;SDS011;11177;50.966;10.070;2023-05-23T06:47:52;3.15;;;2.80;;
22026;SDS011;11177;50.966;10.070;2023-05-23T06:50:19;2.97;;;2.67;;
22026;SDS011;11177;50.966;10.070;2023-05-23T06:52:46;3.08;;;2.80;;
22026;SDS011;11177;50.966;10.070;2023-05-23T06:55:13;4.63;;;2.95;;
22026;SDS011;11177;50.966;10.070;2023-05-23T06:57:43;3.63;;;2.90;;
22026;SDS011;11177;50.966;10.070;2023-05-23T07:00:11;3.85;;;3.10;;
22026;SDS011;11177;50.966;10.070;2023-05-23T07:02:39;3.03;;;2.83;;
22026;SDS011;11177;50.966;10.070;2023-05-23T07:05:06;3.30;;;3.00;;
22026;SDS011;11177;50.966;10.070;2023-05-23T07:07:33;3.80;;;2.90;;
22026;SDS011;11177;50.966;10.070;2023-05-23T07:10:00;3.75;;;3.45;;
22026;SDS011;11177;50.966;10.070;2023-05-23T07:12:26;3.83;;;2.95;;
22026;SDS011;11177;50.966;10.070;2023-05-23T07:14:53;4.20;;;3.40;;
22026;SDS011;11177;50.966;10.070;2023-05-23T07:17:20;3.30;;;3.00;;
22026;SDS011;11177;50.966;10.070;2023-05-23T07:19:48;4.00;;;3.30;;
22026;SDS011;11177;50.966;10.070;2023-05-23T07:22:14;3.92;;;3.50;;
22026;SDS011;11177;50.966;10.070;2023-05-23T07:24:41;4.93;;;3.28;;
22026;SDS011;11177;50.966;10.070;2023-05-23T07:27:08;4.32;;;3.10;;
22026;SDS011;11177;50.966;10.070;2023-05-23T07:29:35;3.80;;;2.95;;
22026;SDS011;11177;50.966;10.070;2023-05-23T07:32:02;5.00;;;3.67;;
22026;SDS011;11177;50.966;10.070;2023-05-23T07:34:29;4.95;;;3.40;;
22026;SDS011;11177;50.966;10.070;2023-05-23T07:36:56;3.20;;;2.90;;
22026;SDS011;11177;50.966;10.070;2023-05-23T07:39:23;5.15;;;3.53;;
22026;SDS011;11177;50.966;10.070;2023-05-23T07:41:51;4.13;;;3.53;;
22026;SDS011;11177;50.966;10.070;2023-05-23T07:44:18;5.78;;;3.45;;
22026;SDS011;11177;50.966;10.070;2023-05-23T07:46:49;4.18;;;3.40;;
22026;SDS011;11177;50.966;10.070;2023-05-23T07:49:17;4.07;;;3.33;;
22026;SDS011;11177;50.966;10.070;2023-05-23T07:51:43;5.72;;;3.65;;
22026;SDS011;11177;50.966;10.070;2023-05-23T07:54:10;4.10;;;3.70;;
22026;SDS011;11177;50.966;10.070;2023-05-23T07:56:41;3.38;;;3.05;;
22026;SDS011;11177;50.966;10.070;2023-05-23T07:59:08;5.25;;;3.67;;
22026;SDS011;11177;50.966;10.070;2023-05-23T08:01:35;6.13;;;4.20;;
22026;SDS011;11177;50.966;10.070;2023-05-23T08:04:03;4.28;;;3.60;;
22026;SDS011;11177;50.966;10.070;2023-05-23T08:06:30;5.28;;;3.70;;
22026;SDS011;11177;50.966;10.070;2023-05-23T08:09:01;3.97;;;3.58;;
22026;SDS011;11177;50.966;10.070;2023-05-23T08:11:28;4.30;;;3.47;;
22026;SDS011;11177;50.966;10.070;2023-05-23T08:13:55;3.85;;;3.50;;
22026;SDS011;11177;50.966;10.070;2023-05-23T08:16:24;4.13;;;3.72;;
22026;SDS011;11177;50.966;10.070;2023-05-23T08:18:53;5.30;;;4.20;;
22026;SDS011;11177;50.966;10.070;2023-05-23T08:21:21;4.65;;;3.70;;
22026;SDS011;11177;50.966;10.070;2023-05-23T08:23:55;7.53;;;3.72;;
22026;SDS011;11177;50.966;10.070;2023-05-23T08:26:22;5.43;;;3.45;;
22026;SDS011;11177;50.966;10.070;2023-05-23T08:28:52;6.90;;;3.88;;
22026;SDS011;11177;50.966;10.070;2023-05-23T08:31:19;5.63;;;3.58;;
22026;SDS011;11177;50.966;10.070;2023-05-23T08:33:47;4.65;;;3.80;;
22026;SDS011;11177;50.966;10.070;2023-05-23T08:36:14;4.78;;;3.75;;
22026;SDS011;11177;50.966;10.070;2023-05-23T08:38:40;4.70;;;3.50;;
22026;SDS011;11177;50.966;10.070;2023-05-23T08:41:08;3.75;;;3.33;;
22026;SDS011;11177;50.966;10.070;2023-05-23T08:43:42;4.15;;;3.72;;
22026;SDS011;11177;50.966;10.070;2023-05-23T08:46:10;3.85;;;3.55;;
22026;SDS011;11177;50.966;10.070;2023-05-23T08:48:38;5.93;;;3.38;;
22026;SDS011;11177;50.966;10.070;2023-05-23T08:51:05;4.47;;;3.20;;
22026;SDS011;11177;50.966;10.070;2023-05-23T08:53:32;4.15;;;3.60;;
22026;SDS011;11177;50.966;10.070;2023-05-23T08:56:02;3.95;;;3.55;;
22026;SDS011;11177;50.966;10.070;2023-05-23T08:58:29;4.57;;;3.70;;
22026;SDS011;11177;50.966;10.070;2023-05-23T09:00:58;4.65;;;3.95;;
22026;SDS011;11177;50.966;10.070;2023-05-23T09:03:25;5.50;;;3.90;;
22026;SDS011;11177;50.966;10.070;2023-05-23T09:05:53;4.55;;;3.78;;
22026;SDS011;11177;50.966;10.070;2023-05-23T09:08:20;4.60;;;4.05;;
22026;SDS011;11177;50.966;10.070;2023-05-23T09:10:47;4.53;;;4.00;;
22026;SDS011;11177;50.966;10.070;2023-05-23T09:13:15;5.25;;;3.90;;
22026;SDS011;11177;50.966;10.070;2023-05-23T09:18:25;6.18;;;4.07;;
22026;SDS011;11177;50.966;10.070;2023-05-23T09:20:53;5.97;;;4.65;;
22026;SDS011;11177;50.966;10.070;2023-05-23T09:23:20;6.22;;;4.38;;
22026;SDS011;11177;50.966;10.070;2023-05-23T09:25:47;5.68;;;4.22;;
22026;SDS011;11177;50.966;10.070;2023-05-23T09:28:13;5.07;;;4.18;;
22026;SDS011;11177;50.966;10.070;2023-05-23T09:30:41;5.53;;;3.95;;
22026;SDS011;11177;50.966;10.070;2023-05-23T09:33:08;4.22;;;3.80;;
22026;SDS011;11177;50.966;10.070;2023-05-23T09:35:35;4.45;;;3.50;;
22026;SDS011;11177;50.966;10.070;2023-05-23T09:38:01;3.35;;;2.97;;
22026;SDS011;11177;50.966;10.070;2023-05-23T09:40:29;3.50;;;3.20;;
22026;SDS011;11177;50.966;10.070;2023-05-23T09:43:00;3.97;;;3.03;;
22026;SDS011;11177;50.966;10.070;2023-05-23T09:45:30;3.67;;;3.08;;
22026;SDS011;11177;50.966;10.070;2023-05-23T09:47:57;3.85;;;3.22;;
22026;SDS011;11177;50.966;10.070;2023-05-23T09:50:25;3.80;;;3.35;;
22026;SDS011;11177;50.966;10.070;2023-05-23T09:52:57;3.85;;;3.35;;
22026;SDS011;11177;50.966;10.070;2023-05-23T09:55:25;3.63;;;3.33;;
22026;SDS011;11177;50.966;10.070;2023-05-23T09:57:52;3.17;;;2.88;;
22026;SDS011;11177;50.966;10.070;2023-05-23T10:00:22;5.22;;;3.00;;
22026;SDS011;11177;50.966;10.070;2023-05-23T10:03:51;4.35;;;2.58;;
22026;SDS011;11177;50.966;10.070;2023-05-23T10:05:59;2.80;;;2.50;;
22026;SDS011;11177;50.966;10.070;2023-05-23T10:08:33;2.75;;;2.50;;
22026;SDS011;11177;50.966;10.070;2023-05-23T10:14:09;3.25;;;2.50;;
22026;SDS011;11177;50.966;10.070;2023-05-23T10:16:54;2.67;;;2.47;;
22026;SDS011;11177;50.966;10.070;2023-05-23T10:22:20;2.13;;;1.92;;
22026;SDS011;11177;50.966;10.070;2023-05-23T10:24:47;2.63;;;1.90;;
22026;SDS011;11177;50.966;10.070;2023-05-23T10:27:14;2.22;;;1.95;;
22026;SDS011;11177;50.966;10.070;2023-05-23T10:29:41;2.47;;;2.25;;
22026;SDS011;11177;50.966;10.070;2023-05-23T10:32:09;1.92;;;1.83;;
22026;SDS011;11177;50.966;10.070;2023-05-23T10:34:46;2.63;;;2.08;;
22026;SDS011;11177;50.966;10.070;2023-05-23T10:40:48;1.60;;;1.50;;
22026;SDS011;11177;50.966;10.070;2023-05-23T10:43:22;1.60;;;1.50;;
22026;SDS011;11177;50.966;10.070;2023-05-23T10:45:52;3.25;;;1.88;;
22026;SDS011;11177;50.966;10.070;2023-05-23T10:48:20;2.92;;;1.80;;
22026;SDS011;11177;50.966;10.070;2023-05-23T10:51:04;1.92;;;1.83;;
22026;SDS011;11177;50.966;10.070;2023-05-23T10:53:42;1.70;;;1.60;;
22026;SDS011;11177;50.966;10.070;2023-05-23T10:56:13;1.90;;;1.80;;
22026;SDS011;11177;50.966;10.070;2023-05-23T10:58:53;2.00;;;1.90;;
22026;SDS011;11177;50.966;10.070;2023-05-23T11:01:21;2.60;;;2.00;;
22026;SDS011;11177;50.966;10.070;2023-05-23T11:03:52;2.17;;;1.45;;
22026;SDS011;11177;50.966;10.070;2023-05-23T11:09:11;4.15;;;1.40;;
22026;SDS011;11177;50.966;10.070;2023-05-23T11:12:02;1.90;;;1.30;;
22026;SDS011;11177;50.966;10.070;2023-05-23T11:14:32;2.05;;;1.50;;
22026;SDS011;11177;50.966;10.070;2023-05-23T11:17:31;1.73;;;1.63;;
22026;SDS011;11177;50.966;10.070;2023-05-23T11:20:02;5.90;;;2.17;;
22026;SDS011;11177;50.966;10.070;2023-05-23T11:22:33;3.85;;;2.03;;
22026;SDS011;11177;50.966;10.070;2023-05-23T11:25:05;4.28;;;2.00;;
22026;SDS011;11177;50.966;10.070;2023-05-23T11:27:35;2.40;;;2.20;;
22026;SDS011;11177;50.966;10.070;2023-05-23T11:32:39;2.22;;;2.03;;
22026;SDS011;11177;50.966;10.070;2023-05-23T11:35:07;3.03;;;2.20;;
22026;SDS011;11177;50.966;10.070;2023-05-23T11:37:37;4.25;;;2.30;;
22026;SDS011;11177;50.966;10.070;2023-05-23T11:43:01;4.07;;;2.00;;
22026;SDS011;11177;50.966;10.070;2023-05-23T11:45:30;1.73;;;1.60;;
22026;SDS011;11177;50.966;10.070;2023-05-23T11:47:58;1.83;;;1.67;;
22026;SDS011;11177;50.966;10.070;2023-05-23T11:50:25;2.20;;;1.77;;
22026;SDS011;11177;50.966;10.070;2023-05-23T11:52:53;2.58;;;1.50;;
22026;SDS011;11177;50.966;10.070;2023-05-23T11:55:20;3.28;;;1.58;;
22026;SDS011;11177;50.966;10.070;2023-05-23T11:57:48;2.53;;;1.75;;
22026;SDS011;11177;50.966;10.070;2023-05-23T12:00:15;2.10;;;1.73;;
22026;SDS011;11177;50.966;10.070;2023-05-23T12:02:43;2.03;;;1.50;;
22026;SDS011;11177;50.966;10.070;2023-05-23T12:05:12;2.75;;;1.30;;
22026;SDS011;11177;50.966;10.070;2023-05-23T12:07:40;1.92;;;1.45;;
22026;SDS011;11177;50.966;10.070;2023-05-23T12:10:11;4.00;;;1.50;;
22026;SDS011;11177;50.966;10.070;2023-05-23T12:12:39;1.75;;;1.20;;
22026;SDS011;11177;50.966;10.070;2023-05-23T12:15:07;1.27;;;1.13;;
22026;SDS011;11177;50.966;10.070;2023-05-23T12:17:38;1.55;;;1.10;;
22026;SDS011;11177;50.966;10.070;2023-05-23T12:20:05;1.10;;;1.00;;
22026;SDS011;11177;50.966;10.070;2023-05-23T12:22:33;1.20;;;0.93;;
22026;SDS011;11177;50.966;10.070;2023-05-23T12:25:00;1.48;;;1.05;;
22026;SDS011;11177;50.966;10.070;2023-05-23T12:27:27;1.10;;;0.93;;
22026;SDS011;11177;50.966;10.070;2023-05-23T12:32:52;1.23;;;0.90;;
22026;SDS011;11177;50.966;10.070;2023-05-23T12:35:19;1.52;;;0.90;;
22026;SDS011;11177;50.966;10.070;2023-05-23T12:37:46;1.23;;;0.98;;
22026;SDS011;11177;50.966;10.070;2023-05-23T12:40:14;2.40;;;1.30;;
22026;SDS011;11177;50.966;10.070;2023-05-23T12:42:43;1.50;;;1.30;;
22026;SDS011;11177;50.966;10.070;2023-05-23T12:45:12;1.33;;;1.23;;
22026;SDS011;11177;50.966;10.070;2023-05-23T12:47:40;1.45;;;1.35;;
22026;SDS011;11177;50.966;10.070;2023-05-23T12:50:08;3.72;;;3.30;;
22026;SDS011;11177;50.966;10.070;2023-05-23T12:52:35;1.60;;;1.17;;
22026;SDS011;11177;50.966;10.070;2023-05-23T12:55:02;1.73;;;1.60;;
22026;SDS011;11177;50.966;10.070;2023-05-23T12:57:30;4.10;;;1.80;;
22026;SDS011;11177;50.966;10.070;2023-05-23T12:59:58;2.42;;;1.70;;
22026;SDS011;11177;50.966;10.070;2023-05-23T13:02:27;2.47;;;1.83;;
22026;SDS011;11177;50.966;10.070;2023-05-23T13:04:54;2.83;;;1.92;;
22026;SDS011;11177;50.966;10.070;2023-05-23T13:07:21;2.10;;;1.90;;
22026;SDS011;11177;50.966;10.070;2023-05-23T13:09:48;3.25;;;1.80;;
22026;SDS011;11177;50.966;10.070;2023-05-23T13:12:15;1.90;;;1.80;;
22026;SDS011;11177;50.966;10.070;2023-05-23T13:14:42;1.88;;;1.58;;
22026;SDS011;11177;50.966;10.070;2023-05-23T13:17:09;2.08;;;1.80;;
22026;SDS011;11177;50.966;10.070;2023-05-23T13:19:36;2.58;;;2.15;;
22026;SDS011;11177;50.966;10.070;2023-05-23T13:22:04;2.92;;;2.70;;
22026;SDS011;11177;50.966;10.070;2023-05-23T13:24:32;2.92;;;2.20;;
22026;SDS011;11177;50.966;10.070;2023-05-23T13:27:02;3.22;;;2.92;;
22026;SDS011;11177;50.966;10.070;2023-05-23T13:29:29;3.00;;;2.70;;
22026;SDS011;11177;50.966;10.070;2023-05-23T13:31:56;3.47;;;3.17;;
22026;SDS011;11177;50.966;10.070;2023-05-23T13:34:24;4.20;;;3.75;;
22026;SDS011;11177;50.966;10.070;2023-05-23T13:36:52;5.00;;;3.70;;
22026;SDS011;11177;50.966;10.070;2023-05-23T13:39:19;5.97;;;4.00;;
22026;SDS011;11177;50.966;10.070;2023-05-23T13:41:48;4.40;;;3.80;;
22026;SDS011;11177;50.966;10.070;2023-05-23T13:44:16;4.70;;;3.80;;
22026;SDS011;11177;50.966;10.070;2023-05-23T13:46:42;5.68;;;3.97;;
22026;SDS011;11177;50.966;10.070;2023-05-23T13:49:09;4.32;;;3.92;;
22026;SDS011;11177;50.966;10.070;2023-05-23T13:51:36;4.82;;;4.25;;
22026;SDS011;11177;50.966;10.070;2023-05-23T13:54:03;4.78;;;4.03;;
22026;SDS011;11177;50.966;10.070;2023-05-23T13:56:31;5.18;;;3.97;;
22026;SDS011;11177;50.966;10.070;2023-05-23T13:58:59;4.93;;;4.40;;
22026;SDS011;11177;50.966;10.070;2023-05-23T14:01:26;4.75;;;4.03;;
22026;SDS011;11177;50.966;10.070;2023-05-23T14:03:54;6.22;;;4.50;;
22026;SDS011;11177;50.966;10.070;2023-05-23T14:06:21;6.05;;;4.63;;
22026;SDS011;11177;50.966;10.070;2023-05-23T14:08:48;4.97;;;4.47;;
22026;SDS011;11177;50.966;10.070;2023-05-23T14:11:15;6.13;;;4.90;;
22026;SDS011;11177;50.966;10.070;2023-05-23T14:13:42;5.50;;;4.40;;
22026;SDS011;11177;50.966;10.070;2023-05-23T14:16:09;5.88;;;4.30;;
22026;SDS011;11177;50.966;10.070;2023-05-23T14:18:36;6.72;;;3.90;;
22026;SDS011;11177;50.966;10.070;2023-05-23T14:21:02;4.97;;;3.80;;
22026;SDS011;11177;50.966;10.070;2023-05-23T14:23:29;4.60;;;3.90;;
22026;SDS011;11177;50.966;10.070;2023-05-23T14:25:56;4.90;;;4.10;;
22026;SDS011;11177;50.966;10.070;2023-05-23T14:28:23;5.32;;;3.90;;
22026;SDS011;11177;50.966;10.070;2023-05-23T14:30:50;6.78;;;4.30;;
22026;SDS011;11177;50.966;10.070;2023-05-23T14:33:17;6.68;;;4.45;;
22026;SDS011;11177;50.966;10.070;2023-05-23T14:35:44;5.53;;;4.38;;
22026;SDS011;11177;50.966;10.070;2023-05-23T14:38:11;9.07;;;4.32;;
22026;SDS011;11177;50.966;10.070;2023-05-23T14:40:37;8.05;;;4.20;;
22026;SDS011;11177;50.966;10.070;2023-05-23T14:43:04;6.47;;;4.22;;
22026;SDS011;11177;50.966;10.070;2023-05-23T14:45:31;5.38;;;4.30;;
22026;SDS011;11177;50.966;10.070;2023-05-23T14:47:58;7.05;;;4.57;;
22026;SDS011;11177;50.966;10.070;2023-05-23T14:50:25;7.97;;;4.57;;
22026;SDS011;11177;50.966;10.070;2023-05-23T14:52:51;7.88;;;4.88;;
22026;SDS011;11177;50.966;10.070;2023-05-23T14:55:18;7.25;;;4.43;;